sensor_id;sensor_type;location;lat;lon;timestamp;pressure;altitude;pressure_sealevel;temperature;humidity
55315;BME280;41619;42.816;23.226;2023-03-04T00:01:06;95591.91;;;4.29;82.15
55315;BME280;41619;42.816;23.226;2023-03-04T00:03:32;95593.97;;;4.32;82.26
55315;BME280;41619;42.816;23.226;2023-03-04T00:05:57;95594.44;;;4.34;82.29
55315;BME280;41619;42.816;23.226;2023-03-04T00:08:22;95590.63;;;4.35;81.71
55315;BME280;41619;42.816;23.226;2023-03-04T00:10:48;95583.28;;;4.35;81.36
55315;BME280;41619;42.816;23.226;2023-03-04T00:13:13;95582.94;;;4.37;81.81
55315;BME280;41619;42.816;23.226;2023-03-04T00:15:39;95587.25;;;4.38;82.04
55315;BME280;41619;42.816;23.226;2023-03-04T00:18:04;95586.13;;;4.39;81.68
55315;BME280;41619;42.816;23.226;2023-03-04T00:20:30;95586.13;;;4.39;81.68
55315;BME280;41619;42.816;23.226;2023-03-04T00:22:55;95576.41;;;4.38;81.93
55315;BME280;41619;42.816;23.226;2023-03-04T00:25:20;95577.22;;;4.38;81.75
55315;BME280;41619;42.816;23.226;2023-03-04T00:31:25;95581.03;;;4.37;81.90
55315;BME280;41619;42.816;23.226;2023-03-04T00:33:50;95573.22;;;4.36;81.87
55315;BME280;41619;42.816;23.226;2023-03-04T00:36:16;95570.19;;;4.37;82.02
55315;BME280;41619;42.816;23.226;2023-03-04T00:38:41;95570.19;;;4.37;81.61
55315;BME280;41619;42.816;23.226;2023-03-04T00:41:07;95561.28;;;4.37;81.83
55315;BME280;41619;42.816;23.226;2023-03-04T00:43:32;95557.78;;;4.36;82.05
55315;BME280;41619;42.816;23.226;2023-03-04T00:45:57;95568.28;;;4.38;81.75
55315;BME280;41619;42.816;23.226;2023-03-04T00:48:24;95562.53;;;4.39;81.94
55315;BME280;41619;42.816;23.226;2023-03-04T00:50:49;95554.72;;;4.38;81.80
55315;BME280;41619;42.816;23.226;2023-03-04T00:53:17;95548.53;;;4.37;82.24
55315;BME280;41619;42.816;23.226;2023-03-04T00:55:42;95555.06;;;4.36;81.89
55315;BME280;41619;42.816;23.226;2023-03-04T00:58:07;95547.72;;;4.37;82.01
55315;BME280;41619;42.816;23.226;2023-03-04T01:00:33;95541.50;;;4.36;81.85
55315;BME280;41619;42.816;23.226;2023-03-04T01:02:58;95540.72;;;4.36;81.85
55315;BME280;41619;42.816;23.226;2023-03-04T01:05:24;95547.25;;;4.35;81.65
55315;BME280;41619;42.816;23.226;2023-03-04T01:07:50;95543.75;;;4.34;81.80
55315;BME280;41619;42.816;23.226;2023-03-04T01:10:15;95538.66;;;4.33;81.77
55315;BME280;41619;42.816;23.226;2023-03-04T01:12:41;95535.94;;;4.33;82.00
55315;BME280;41619;42.816;23.226;2023-03-04T01:15:12;95540.56;;;4.32;81.57
55315;BME280;41619;42.816;23.226;2023-03-04T01:17:38;95540.56;;;4.32;81.84
55315;BME280;41619;42.816;23.226;2023-03-04T01:20:06;95533.56;;;4.31;82.04
55315;BME280;41619;42.816;23.226;2023-03-04T01:22:32;95538.97;;;4.31;82.13
55315;BME280;41619;42.816;23.226;2023-03-04T01:24:57;95535.16;;;4.32;81.56
55315;BME280;41619;42.816;23.226;2023-03-04T01:27:22;95538.66;;;4.33;81.84
55315;BME280;41619;42.816;23.226;2023-03-04T01:29:48;95540.56;;;4.32;81.68
55315;BME280;41619;42.816;23.226;2023-03-04T01:32:13;95539.44;;;4.33;81.58
55315;BME280;41619;42.816;23.226;2023-03-04T01:34:39;95534.84;;;4.34;81.50
55315;BME280;41619;42.816;23.226;2023-03-04T01:37:05;95528.63;;;4.33;81.66
55315;BME280;41619;42.816;23.226;2023-03-04T01:39:30;95529.41;;;4.34;81.28
55315;BME280;41619;42.816;23.226;2023-03-04T01:41:55;95529.41;;;4.34;81.74
55315;BME280;41619;42.816;23.226;2023-03-04T01:44:21;95531.31;;;4.33;81.34
55315;BME280;41619;42.816;23.226;2023-03-04T01:46:49;95521.28;;;4.34;81.20
55315;BME280;41619;42.816;23.226;2023-03-04T01:49:15;95526.38;;;4.35;81.65
55315;BME280;41619;42.816;23.226;2023-03-04T01:51:43;95529.88;;;4.36;81.71
55315;BME280;41619;42.816;23.226;2023-03-04T01:54:10;95528.28;;;4.35;81.77
55315;BME280;41619;42.816;23.226;2023-03-04T01:56:37;95522.06;;;4.34;81.57
55315;BME280;41619;42.816;23.226;2023-03-04T02:01:48;95515.41;;;4.32;81.07
55315;BME280;41619;42.816;23.226;2023-03-04T02:04:16;95522.72;;;4.31;81.61
55315;BME280;41619;42.816;23.226;2023-03-04T02:06:43;95519.56;;;4.29;81.45
55315;BME280;41619;42.816;23.226;2023-03-04T02:09:10;95510.63;;;4.29;81.33
55315;BME280;41619;42.816;23.226;2023-03-04T02:11:36;95512.03;;;4.26;81.70
55315;BME280;41619;42.816;23.226;2023-03-04T02:14:03;95510.44;;;4.25;81.58
55315;BME280;41619;42.816;23.226;2023-03-04T02:16:28;95504.25;;;4.24;81.67
55315;BME280;41619;42.816;23.226;2023-03-04T02:18:55;95506.47;;;4.22;81.59
55315;BME280;41619;42.816;23.226;2023-03-04T02:21:26;95507.94;;;4.20;81.76
55315;BME280;41619;42.816;23.226;2023-03-04T02:26:35;95511.28;;;4.17;81.94
55315;BME280;41619;42.816;23.226;2023-03-04T02:29:02;95507.78;;;4.16;81.85
55315;BME280;41619;42.816;23.226;2023-03-04T02:33:59;95513.06;;;4.13;81.58
55315;BME280;41619;42.816;23.226;2023-03-04T02:36:25;95503.66;;;4.10;81.80
55315;BME280;41619;42.816;23.226;2023-03-04T02:38:52;95514.00;;;4.08;81.84
55315;BME280;41619;42.816;23.226;2023-03-04T02:41:22;95503.03;;;4.05;81.91
55315;BME280;41619;42.816;23.226;2023-03-04T02:43:51;95509.88;;;4.02;81.50
55315;BME280;41619;42.816;23.226;2023-03-04T02:46:17;95507.81;;;3.99;81.76
55315;BME280;41619;42.816;23.226;2023-03-04T02:48:42;95508.47;;;3.96;81.63
55315;BME280;41619;42.816;23.226;2023-03-04T02:51:08;95507.19;;;3.93;81.78
55315;BME280;41619;42.816;23.226;2023-03-04T02:53:33;95507.53;;;3.92;81.82
55315;BME280;41619;42.816;23.226;2023-03-04T02:55:58;95500.53;;;3.91;81.81
55315;BME280;41619;42.816;23.226;2023-03-04T02:58:24;95500.81;;;3.89;81.78
55315;BME280;41619;42.816;23.226;2023-03-04T03:00:49;95491.75;;;3.85;81.86
55315;BME280;41619;42.816;23.226;2023-03-04T03:03:15;95493.97;;;3.83;82.00
55315;BME280;41619;42.816;23.226;2023-03-04T03:05:40;95484.59;;;3.81;82.18
55315;BME280;41619;42.816;23.226;2023-03-04T03:08:06;95492.25;;;3.79;82.05
55315;BME280;41619;42.816;23.226;2023-03-04T03:10:32;95492.09;;;3.75;81.92
55315;BME280;41619;42.816;23.226;2023-03-04T03:12:57;95498.94;;;3.73;82.09
55315;BME280;41619;42.816;23.226;2023-03-04T03:15:23;95498.44;;;3.71;82.06
55315;BME280;41619;42.816;23.226;2023-03-04T03:17:49;95508.47;;;3.70;82.18
55315;BME280;41619;42.816;23.226;2023-03-04T03:20:15;95501.81;;;3.68;81.93
55315;BME280;41619;42.816;23.226;2023-03-04T03:22:41;95503.72;;;3.67;82.36
55315;BME280;41619;42.816;23.226;2023-03-04T03:25:07;95500.69;;;3.69;82.11
55315;BME280;41619;42.816;23.226;2023-03-04T03:27:33;95497.97;;;3.69;82.46
55315;BME280;41619;42.816;23.226;2023-03-04T03:29:58;95497.34;;;3.72;81.85
55315;BME280;41619;42.816;23.226;2023-03-04T03:32:24;95493.03;;;3.71;82.03
55315;BME280;41619;42.816;23.226;2023-03-04T03:34:49;95484.13;;;3.70;82.04
55315;BME280;41619;42.816;23.226;2023-03-04T03:37:15;95494.16;;;3.70;81.40
55315;BME280;41619;42.816;23.226;2023-03-04T03:39:40;95484.44;;;3.69;81.89
55315;BME280;41619;42.816;23.226;2023-03-04T03:42:06;95490.31;;;3.71;81.79
55315;BME280;41619;42.816;23.226;2023-03-04T03:44:31;95490.84;;;3.73;82.00
55315;BME280;41619;42.816;23.226;2023-03-04T03:46:57;95486.22;;;3.73;81.69
55315;BME280;41619;42.816;23.226;2023-03-04T03:49:22;95488.91;;;3.73;81.37
55315;BME280;41619;42.816;23.226;2023-03-04T03:51:48;95485.72;;;3.71;81.74
55315;BME280;41619;42.816;23.226;2023-03-04T03:54:13;95485.72;;;3.71;81.91
55315;BME280;41619;42.816;23.226;2023-03-04T03:56:39;95481.75;;;3.69;81.68
55315;BME280;41619;42.816;23.226;2023-03-04T03:59:04;95483.31;;;3.70;81.66
55315;BME280;41619;42.816;23.226;2023-03-04T04:01:29;95479.34;;;3.67;81.67
55315;BME280;41619;42.816;23.226;2023-03-04T04:03:55;95483.19;;;3.66;81.60
55315;BME280;41619;42.816;23.226;2023-03-04T04:06:20;95477.63;;;3.62;81.89
55315;BME280;41619;42.816;23.226;2023-03-04T04:08:46;95469.81;;;3.61;81.81
55315;BME280;41619;42.816;23.226;2023-03-04T04:11:11;95472.38;;;3.57;81.65
55315;BME280;41619;42.816;23.226;2023-03-04T04:13:37;95471.72;;;3.52;81.61
55315;BME280;41619;42.816;23.226;2023-03-04T04:16:03;95466.00;;;3.45;81.97
55315;BME280;41619;42.816;23.226;2023-03-04T04:18:29;95475.88;;;3.41;81.79
55315;BME280;41619;42.816;23.226;2023-03-04T04:20:54;95463.59;;;3.34;81.85
55315;BME280;41619;42.816;23.226;2023-03-04T04:23:20;95468.72;;;3.27;82.05
55315;BME280;41619;42.816;23.226;2023-03-04T04:25:45;95475.09;;;3.23;82.01
55315;BME280;41619;42.816;23.226;2023-03-04T04:28:11;95467.94;;;3.18;82.11
55315;BME280;41619;42.816;23.226;2023-03-04T04:30:37;95473.16;;;3.15;81.99
55315;BME280;41619;42.816;23.226;2023-03-04T04:33:03;95473.00;;;3.11;82.13
55315;BME280;41619;42.816;23.226;2023-03-04T04:35:30;95468.53;;;3.07;82.38
55315;BME280;41619;42.816;23.226;2023-03-04T04:37:56;95476.81;;;3.01;82.65
55315;BME280;41619;42.816;23.226;2023-03-04T04:40:21;95471.53;;;2.96;82.24
55315;BME280;41619;42.816;23.226;2023-03-04T04:42:47;95471.38;;;2.93;82.71
55315;BME280;41619;42.816;23.226;2023-03-04T04:45:12;95477.09;;;2.91;82.37
55315;BME280;41619;42.816;23.226;2023-03-04T04:47:38;95473.94;;;2.89;82.54
55315;BME280;41619;42.816;23.226;2023-03-04T04:50:03;95476.16;;;2.87;82.50
55315;BME280;41619;42.816;23.226;2023-03-04T04:52:29;95477.09;;;2.83;82.77
55315;BME280;41619;42.816;23.226;2023-03-04T04:54:54;95481.25;;;2.80;82.70
55315;BME280;41619;42.816;23.226;2023-03-04T04:57:20;95478.03;;;2.78;83.01
55315;BME280;41619;42.816;23.226;2023-03-04T04:59:45;95488.03;;;2.78;82.67
55315;BME280;41619;42.816;23.226;2023-03-04T05:02:10;95480.25;;;2.76;82.65
55315;BME280;41619;42.816;23.226;2023-03-04T05:04:36;95486.44;;;2.77;83.10
55315;BME280;41619;42.816;23.226;2023-03-04T05:07:01;95489.63;;;2.79;82.85
55315;BME280;41619;42.816;23.226;2023-03-04T05:09:27;95494.75;;;2.80;83.15
55315;BME280;41619;42.816;23.226;2023-03-04T05:11:52;95494.91;;;2.84;82.91
55315;BME280;41619;42.816;23.226;2023-03-04T05:14:17;95489.66;;;2.87;82.75
55315;BME280;41619;42.816;23.226;2023-03-04T05:16:43;95486.00;;;2.92;82.84
55315;BME280;41619;42.816;23.226;2023-03-04T05:19:09;95493.97;;;2.97;82.76
55315;BME280;41619;42.816;23.226;2023-03-04T05:21:34;95489.22;;;3.02;82.52
55315;BME280;41619;42.816;23.226;2023-03-04T05:24:00;95497.19;;;3.08;83.18
55315;BME280;41619;42.816;23.226;2023-03-04T05:26:25;95498.28;;;3.15;82.52
55315;BME280;41619;42.816;23.226;2023-03-04T05:28:51;95500.22;;;3.23;82.93
55315;BME280;41619;42.816;23.226;2023-03-04T05:31:16;95505.94;;;3.30;82.56
55315;BME280;41619;42.816;23.226;2023-03-04T05:33:42;95509.00;;;3.38;82.44
55315;BME280;41619;42.816;23.226;2023-03-04T05:36:08;95511.22;;;3.44;82.65
55315;BME280;41619;42.816;23.226;2023-03-04T05:38:33;95512.63;;;3.50;82.08
55315;BME280;41619;42.816;23.226;2023-03-04T05:41:01;95511.06;;;3.58;82.43
55315;BME280;41619;42.816;23.226;2023-03-04T05:43:29;95510.09;;;3.62;82.44
55315;BME280;41619;42.816;23.226;2023-03-04T05:45:54;95515.81;;;3.70;82.17
55315;BME280;41619;42.816;23.226;2023-03-04T05:48:20;95518.69;;;3.73;82.10
55315;BME280;41619;42.816;23.226;2023-03-04T05:50:46;95523.63;;;3.80;81.77
55315;BME280;41619;42.816;23.226;2023-03-04T05:53:12;95525.69;;;3.83;82.19
55315;BME280;41619;42.816;23.226;2023-03-04T05:55:37;95529.50;;;3.90;82.05
55315;BME280;41619;42.816;23.226;2023-03-04T05:58:03;95525.50;;;3.97;82.00
55315;BME280;41619;42.816;23.226;2023-03-04T06:00:28;95528.84;;;4.02;81.71
55315;BME280;41619;42.816;23.226;2023-03-04T06:02:54;95523.56;;;4.06;81.92
55315;BME280;41619;42.816;23.226;2023-03-04T06:05:21;95525.34;;;4.10;81.80
55315;BME280;41619;42.816;23.226;2023-03-04T06:07:47;95531.03;;;4.17;81.73
55315;BME280;41619;42.816;23.226;2023-03-04T06:10:14;95534.38;;;4.23;81.74
55315;BME280;41619;42.816;23.226;2023-03-04T06:12:41;95537.88;;;4.23;81.79
55315;BME280;41619;42.816;23.226;2023-03-04T06:15:07;95541.06;;;4.25;81.42
55315;BME280;41619;42.816;23.226;2023-03-04T06:17:34;95536.44;;;4.26;81.40
55315;BME280;41619;42.816;23.226;2023-03-04T06:20:00;95532.78;;;4.31;81.36
55315;BME280;41619;42.816;23.226;2023-03-04T06:22:25;95541.03;;;4.34;81.31
55315;BME280;41619;42.816;23.226;2023-03-04T06:24:50;95541.19;;;4.38;81.32
55315;BME280;41619;42.816;23.226;2023-03-04T06:27:16;95555.69;;;4.42;81.37
55315;BME280;41619;42.816;23.226;2023-03-04T06:29:41;95556.94;;;4.44;81.33
55315;BME280;41619;42.816;23.226;2023-03-04T06:32:07;95554.06;;;4.49;80.96
55315;BME280;41619;42.816;23.226;2023-03-04T06:34:32;95552.78;;;4.55;81.10
55315;BME280;41619;42.816;23.226;2023-03-04T06:36:58;95547.50;;;4.59;80.79
55315;BME280;41619;42.816;23.226;2023-03-04T06:39:25;95557.34;;;4.64;81.04
55315;BME280;41619;42.816;23.226;2023-03-04T06:41:50;95555.13;;;4.66;80.71
55315;BME280;41619;42.816;23.226;2023-03-04T06:44:16;95555.94;;;4.66;80.91
55315;BME280;41619;42.816;23.226;2023-03-04T06:46:41;95555.13;;;4.66;80.20
55315;BME280;41619;42.816;23.226;2023-03-04T06:49:07;95557.06;;;4.65;80.65
55315;BME280;41619;42.816;23.226;2023-03-04T06:51:32;95563.75;;;4.68;80.89
55315;BME280;41619;42.816;23.226;2023-03-04T06:53:57;95561.03;;;4.68;80.30
55315;BME280;41619;42.816;23.226;2023-03-04T06:56:23;95566.44;;;4.68;80.59
55315;BME280;41619;42.816;23.226;2023-03-04T06:58:48;95552.56;;;4.69;80.15
55315;BME280;41619;42.816;23.226;2023-03-04T07:01:34;95558.13;;;4.73;80.55
55315;BME280;41619;42.816;23.226;2023-03-04T07:04:01;95552.06;;;4.76;80.73
55315;BME280;41619;42.816;23.226;2023-03-04T07:06:27;95555.38;;;4.81;80.43
55315;BME280;41619;42.816;23.226;2023-03-04T07:08:53;95550.25;;;4.89;80.41
55315;BME280;41619;42.816;23.226;2023-03-04T07:11:19;95555.94;;;4.96;79.97
55315;BME280;41619;42.816;23.226;2023-03-04T07:13:46;95559.75;;;5.03;79.63
55315;BME280;41619;42.816;23.226;2023-03-04T07:16:14;95561.94;;;5.10;79.47
55315;BME280;41619;42.816;23.226;2023-03-04T07:18:40;95563.22;;;5.12;79.69
55315;BME280;41619;42.816;23.226;2023-03-04T07:21:06;95565.59;;;5.14;79.47
55315;BME280;41619;42.816;23.226;2023-03-04T07:23:32;95571.81;;;5.14;78.97
55315;BME280;41619;42.816;23.226;2023-03-04T07:25:58;95565.09;;;5.21;79.39
55315;BME280;41619;42.816;23.226;2023-03-04T07:28:24;95564.44;;;5.24;79.05
55315;BME280;41619;42.816;23.226;2023-03-04T07:30:50;95566.50;;;5.27;78.78
55315;BME280;41619;42.816;23.226;2023-03-04T07:33:15;95572.50;;;5.32;78.11
55315;BME280;41619;42.816;23.226;2023-03-04T07:35:41;95567.53;;;5.34;78.08
55315;BME280;41619;42.816;23.226;2023-03-04T07:38:07;95571.06;;;5.35;78.20
55315;BME280;41619;42.816;23.226;2023-03-04T07:40:32;95569.13;;;5.35;78.18
55315;BME280;41619;42.816;23.226;2023-03-04T07:42:58;95566.41;;;5.35;77.57
55315;BME280;41619;42.816;23.226;2023-03-04T07:45:25;95561.78;;;5.36;78.18
55315;BME280;41619;42.816;23.226;2023-03-04T07:47:51;95569.28;;;5.39;77.25
55315;BME280;41619;42.816;23.226;2023-03-04T07:50:17;95563.03;;;5.38;77.27
55315;BME280;41619;42.816;23.226;2023-03-04T07:52:45;95555.19;;;5.45;76.62
55315;BME280;41619;42.816;23.226;2023-03-04T07:55:12;95554.19;;;5.50;75.88
55315;BME280;41619;42.816;23.226;2023-03-04T07:57:39;95562.47;;;5.54;76.33
55315;BME280;41619;42.816;23.226;2023-03-04T08:00:05;95561.50;;;5.58;76.12
55315;BME280;41619;42.816;23.226;2023-03-04T08:02:30;95563.69;;;5.65;75.59
55315;BME280;41619;42.816;23.226;2023-03-04T08:04:56;95556.78;;;5.67;75.67
55315;BME280;41619;42.816;23.226;2023-03-04T08:07:21;95560.88;;;5.73;75.35
55315;BME280;41619;42.816;23.226;2023-03-04T08:09:47;95555.63;;;5.77;75.26
55315;BME280;41619;42.816;23.226;2023-03-04T08:12:12;95559.72;;;5.83;75.05
55315;BME280;41619;42.816;23.226;2023-03-04T08:14:37;95551.03;;;5.90;74.76
55315;BME280;41619;42.816;23.226;2023-03-04T08:17:03;95547.31;;;5.94;74.63
55315;BME280;41619;42.816;23.226;2023-03-04T08:19:28;95549.53;;;6.01;74.20
55315;BME280;41619;42.816;23.226;2023-03-04T08:21:54;95547.03;;;6.08;74.10
55315;BME280;41619;42.816;23.226;2023-03-04T08:24:19;95548.09;;;6.16;74.08
55315;BME280;41619;42.816;23.226;2023-03-04T08:26:47;95549.81;;;6.20;74.56
55315;BME280;41619;42.816;23.226;2023-03-04T08:29:16;95544.84;;;6.22;74.33
55315;BME280;41619;42.816;23.226;2023-03-04T08:31:42;95551.53;;;6.25;74.15
55315;BME280;41619;42.816;23.226;2023-03-04T08:34:11;95548.00;;;6.24;73.60
55315;BME280;41619;42.816;23.226;2023-03-04T08:36:37;95550.72;;;6.24;73.52
55315;BME280;41619;42.816;23.226;2023-03-04T08:39:04;95554.25;;;6.25;73.80
55315;BME280;41619;42.816;23.226;2023-03-04T08:41:29;95541.56;;;6.29;73.94
55315;BME280;41619;42.816;23.226;2023-03-04T08:43:55;95539.97;;;6.28;73.43
55315;BME280;41619;42.816;23.226;2023-03-04T08:46:20;95541.66;;;6.20;73.15
55315;BME280;41619;42.816;23.226;2023-03-04T08:48:46;95535.84;;;6.10;72.90
55315;BME280;41619;42.816;23.226;2023-03-04T08:51:13;95541.63;;;6.08;73.10
55315;BME280;41619;42.816;23.226;2023-03-04T08:53:39;95541.28;;;6.10;73.60
55315;BME280;41619;42.816;23.226;2023-03-04T08:56:05;95546.03;;;6.13;73.35
55315;BME280;41619;42.816;23.226;2023-03-04T08:58:31;95539.16;;;6.15;73.66
55315;BME280;41619;42.816;23.226;2023-03-04T09:00:58;95536.22;;;6.20;72.57
55315;BME280;41619;42.816;23.226;2023-03-04T09:03:24;95533.41;;;6.29;73.22
55315;BME280;41619;42.816;23.226;2023-03-04T09:05:50;95529.03;;;6.36;72.40
55315;BME280;41619;42.816;23.226;2023-03-04T09:08:16;95534.03;;;6.47;71.82
55315;BME280;41619;42.816;23.226;2023-03-04T09:10:42;95525.78;;;6.55;72.16
55315;BME280;41619;42.816;23.226;2023-03-04T09:13:08;95534.28;;;6.66;72.21
55315;BME280;41619;42.816;23.226;2023-03-04T09:15:36;95528.31;;;6.73;71.48
55315;BME280;41619;42.816;23.226;2023-03-04T09:18:03;95521.38;;;6.75;71.88
55315;BME280;41619;42.816;23.226;2023-03-04T09:20:29;95520.25;;;6.76;72.03
55315;BME280;41619;42.816;23.226;2023-03-04T09:22:55;95519.56;;;6.79;71.77
55315;BME280;41619;42.816;23.226;2023-03-04T09:25:20;95518.09;;;6.82;70.87
55315;BME280;41619;42.816;23.226;2023-03-04T09:27:45;95518.66;;;6.87;71.21
55315;BME280;41619;42.816;23.226;2023-03-04T09:30:11;95512.22;;;6.92;71.23
55315;BME280;41619;42.816;23.226;2023-03-04T09:32:37;95520.50;;;6.95;71.05
55315;BME280;41619;42.816;23.226;2023-03-04T09:35:02;95519.25;;;6.93;70.78
55315;BME280;41619;42.816;23.226;2023-03-04T09:37:28;95514.59;;;6.93;69.98
55315;BME280;41619;42.816;23.226;2023-03-04T09:39:53;95514.81;;;7.01;70.65
55315;BME280;41619;42.816;23.226;2023-03-04T09:42:37;95514.13;;;7.16;69.69
55315;BME280;41619;42.816;23.226;2023-03-04T09:45:15;95513.44;;;7.31;69.51
55315;BME280;41619;42.816;23.226;2023-03-04T09:47:41;95510.56;;;7.40;68.66
55315;BME280;41619;42.816;23.226;2023-03-04T09:50:09;95505.13;;;7.52;69.19
55315;BME280;41619;42.816;23.226;2023-03-04T09:55:31;95502.75;;;7.78;68.65
55315;BME280;41619;42.816;23.226;2023-03-04T10:00:44;95497.97;;;7.87;67.58
55315;BME280;41619;42.816;23.226;2023-03-04T10:06:10;95499.97;;;8.03;67.90
55315;BME280;41619;42.816;23.226;2023-03-04T10:09:13;95489.78;;;8.15;67.32
55315;BME280;41619;42.816;23.226;2023-03-04T10:11:44;95495.69;;;8.33;67.23
55315;BME280;41619;42.816;23.226;2023-03-04T10:22:20;95479.91;;;8.70;66.55
55315;BME280;41619;42.816;23.226;2023-03-04T10:24:49;95478.84;;;8.91;65.91
55315;BME280;41619;42.816;23.226;2023-03-04T10:27:17;95475.31;;;9.06;65.13
55315;BME280;41619;42.816;23.226;2023-03-04T10:29:44;95472.59;;;9.06;64.69
55315;BME280;41619;42.816;23.226;2023-03-04T10:32:17;95468.63;;;9.03;64.32
55315;BME280;41619;42.816;23.226;2023-03-04T10:34:43;95458.44;;;9.00;64.27
55315;BME280;41619;42.816;23.226;2023-03-04T10:37:08;95454.47;;;8.98;64.65
55315;BME280;41619;42.816;23.226;2023-03-04T10:39:41;95457.63;;;9.00;64.37
55315;BME280;41619;42.816;23.226;2023-03-04T10:44:50;95449.94;;;9.21;64.48
55315;BME280;41619;42.816;23.226;2023-03-04T10:47:16;95442.25;;;9.27;64.44
55315;BME280;41619;42.816;23.226;2023-03-04T10:49:50;95435.81;;;9.35;64.00
55315;BME280;41619;42.816;23.226;2023-03-04T10:52:46;95426.31;;;9.48;63.89
55315;BME280;41619;42.816;23.226;2023-03-04T10:55:30;95426.19;;;9.60;63.77
55315;BME280;41619;42.816;23.226;2023-03-04T10:58:06;95424.47;;;9.71;63.49
55315;BME280;41619;42.816;23.226;2023-03-04T11:00:36;95411.34;;;9.81;63.47
55315;BME280;41619;42.816;23.226;2023-03-04T11:06:23;95398.94;;;10.25;62.75
55315;BME280;41619;42.816;23.226;2023-03-04T11:08:56;95395.00;;;10.46;62.01
55315;BME280;41619;42.816;23.226;2023-03-04T11:11:37;95380.84;;;10.67;61.34
55315;BME280;41619;42.816;23.226;2023-03-04T11:14:27;95382.84;;;10.96;60.47
55315;BME280;41619;42.816;23.226;2023-03-04T11:16:57;95383.72;;;11.00;59.20
55315;BME280;41619;42.816;23.226;2023-03-04T11:19:28;95381.41;;;11.02;58.19
55315;BME280;41619;42.816;23.226;2023-03-04T11:21:57;95374.81;;;11.07;58.36
55315;BME280;41619;42.816;23.226;2023-03-04T11:24:27;95362.44;;;11.16;58.21
55315;BME280;41619;42.816;23.226;2023-03-04T11:27:09;95373.22;;;11.06;58.23
55315;BME280;41619;42.816;23.226;2023-03-04T11:29:57;95367.59;;;10.95;58.58
55315;BME280;41619;42.816;23.226;2023-03-04T11:32:30;95361.28;;;10.91;58.97
55315;BME280;41619;42.816;23.226;2023-03-04T11:35:16;95362.44;;;10.90;59.41
55315;BME280;41619;42.816;23.226;2023-03-04T11:38:07;95352.84;;;10.77;59.17
55315;BME280;41619;42.816;23.226;2023-03-04T11:40:42;95341.06;;;10.73;59.48
55315;BME280;41619;42.816;23.226;2023-03-04T11:43:16;95344.06;;;10.64;59.30
55315;BME280;41619;42.816;23.226;2023-03-04T11:56:35;95335.03;;;10.37;59.86
55315;BME280;41619;42.816;23.226;2023-03-04T12:02:11;95326.69;;;10.26;59.90
55315;BME280;41619;42.816;23.226;2023-03-04T12:40:38;95285.44;;;10.16;59.93
55315;BME280;41619;42.816;23.226;2023-03-04T12:43:31;95289.97;;;10.27;59.61
55315;BME280;41619;42.816;23.226;2023-03-04T12:46:14;95280.22;;;10.30;59.34
55315;BME280;41619;42.816;23.226;2023-03-04T12:48:58;95284.00;;;10.22;59.29
55315;BME280;41619;42.816;23.226;2023-03-04T12:51:42;95274.22;;;10.21;59.13
55315;BME280;41619;42.816;23.226;2023-03-04T12:59:39;95267.81;;;10.36;59.06
55315;BME280;41619;42.816;23.226;2023-03-04T13:10:21;95249.84;;;10.12;58.96
55315;BME280;41619;42.816;23.226;2023-03-04T13:12:53;95248.50;;;10.02;58.75
55315;BME280;41619;42.816;23.226;2023-03-04T13:20:42;95238.78;;;9.82;59.32
55315;BME280;41619;42.816;23.226;2023-03-04T13:51:28;95217.13;;;9.05;59.98
55315;BME280;41619;42.816;23.226;2023-03-04T14:06:42;95214.97;;;8.37;60.20
55315;BME280;41619;42.816;23.226;2023-03-04T14:09:34;95204.22;;;8.28;60.66
55315;BME280;41619;42.816;23.226;2023-03-04T14:12:02;95212.69;;;8.23;60.87
55315;BME280;41619;42.816;23.226;2023-03-04T14:14:49;95204.75;;;8.18;61.17
55315;BME280;41619;42.816;23.226;2023-03-04T14:17:25;95197.31;;;8.15;61.37
55315;BME280;41619;42.816;23.226;2023-03-04T14:19:52;95205.03;;;8.13;61.51
55315;BME280;41619;42.816;23.226;2023-03-04T14:27:27;95198.56;;;8.02;62.00
55315;BME280;41619;42.816;23.226;2023-03-04T14:29:58;95199.38;;;8.02;61.77
55315;BME280;41619;42.816;23.226;2023-03-04T14:32:24;95195.06;;;8.01;61.88
55315;BME280;41619;42.816;23.226;2023-03-04T14:34:57;95195.84;;;8.02;62.34
55315;BME280;41619;42.816;23.226;2023-03-04T14:37:26;95192.78;;;8.03;62.17
55315;BME280;41619;42.816;23.226;2023-03-04T14:39:56;95189.25;;;8.03;62.38
55315;BME280;41619;42.816;23.226;2023-03-04T14:42:24;95188.81;;;8.01;62.89
55315;BME280;41619;42.816;23.226;2023-03-04T14:44:52;95184.41;;;7.96;63.13
55315;BME280;41619;42.816;23.226;2023-03-04T14:47:44;95184.34;;;7.93;63.32
55315;BME280;41619;42.816;23.226;2023-03-04T14:50:18;95179.25;;;7.91;63.46
55315;BME280;41619;42.816;23.226;2023-03-04T14:52:49;95187.41;;;7.91;63.21
55315;BME280;41619;42.816;23.226;2023-03-04T14:55:17;95184.63;;;7.87;63.74
55315;BME280;41619;42.816;23.226;2023-03-04T14:57:45;95172.16;;;7.86;63.81
55315;BME280;41619;42.816;23.226;2023-03-04T15:02:55;95171.34;;;7.86;64.11
55315;BME280;41619;42.816;23.226;2023-03-04T15:05:31;95170.13;;;7.83;64.31
55315;BME280;41619;42.816;23.226;2023-03-04T15:08:02;95168.56;;;7.82;64.24
55315;BME280;41619;42.816;23.226;2023-03-04T15:10:36;95158.00;;;7.81;64.34
55315;BME280;41619;42.816;23.226;2023-03-04T15:13:05;95170.03;;;7.80;64.28
55315;BME280;41619;42.816;23.226;2023-03-04T15:15:39;95158.81;;;7.81;64.67
55315;BME280;41619;42.816;23.226;2023-03-04T15:18:23;95161.16;;;7.83;64.92
55315;BME280;41619;42.816;23.226;2023-03-04T15:23:18;95158.88;;;7.85;65.13
55315;BME280;41619;42.816;23.226;2023-03-04T15:25:43;95160.44;;;7.86;65.22
55315;BME280;41619;42.816;23.226;2023-03-04T15:28:18;95153.44;;;7.85;64.87
55315;BME280;41619;42.816;23.226;2023-03-04T15:30:44;95153.00;;;7.83;65.37
55315;BME280;41619;42.816;23.226;2023-03-04T15:33:10;95147.56;;;7.83;65.45
55315;BME280;41619;42.816;23.226;2023-03-04T15:35:36;95146.75;;;7.82;65.76
55315;BME280;41619;42.816;23.226;2023-03-04T15:38:05;95143.25;;;7.82;65.66